Airfield :
LOGIN :

Register | Disclaimer

   EN    FR    IT 

 










Legend :    VFR   Marginal VFR   IFR   Intensive IFR   Very Intensive IFR
Visi :
Ceiling :
>= 8 km
>= 3000ft
5 to 8 km
1000 to 3000 ft
1500m to 5 km
500 to 1000 ft
800 to 1500m
200 to 500 ft
< 800m
< 200 ft
Symbols :   Thunderstorms  Fog  Heavy snow  Heavy precipitations  Wind > 20 kt
SIGMETs :     Misc.  Thunderstorms  Icing  Turbulence  Mountain Waves  Volcanic Ashes







- Airport Elevation : 74 ft
- IATA code : EIN


EHEH - Eindhoven

CURRENT METAR :
  • 220055Z AUTO 19013KT 9999 SCT029 BKN033 BKN041 11/07 Q1008 BLU

EXPIRED METARs :
  • 220025Z AUTO 19013KT 160V220 9999 NCD 11/07 Q1008 BLU
  • 212355Z AUTO 19011KT 160V220 9999 FEW033 11/07 Q1009 BLU
  • 212325Z AUTO 19011KT 160V220 9999 FEW150 11/07 Q1009 BLU
  • 212255Z AUTO 20011KT 160V230 9999 NCD 12/06 Q1009 BLU
  • 212225Z AUTO 21013KT 180V240 9999 FEW130 12/06 Q1009 BLU
  • 212155Z AUTO 20014KT 9999 NCD 12/07 Q1009 BLU

TAF TAF EHEH
Valid from the 22 at 00:00 until the 23 at 06:00 UTC


212303Z 2200/2306 20011KT 9999 FEW030 SCT130
BECMG 2201/2204 22014KT FEW010 SCT014 BKN030
TEMPO 2202/2209 22015G25KT 4000 RA SHRA FEW008 SCT010 SCT018CB OVC030
BECMG 2210/2212 24012G22KT 9999 SCT020 BKN030
TEMPO 2210/2222 FEW010 SCT015CB BKN020
BECMG 2219/2222 25010KT
No reported NOTAMs for that airfield.



MET'MAP, your aeronautical weather chart ! - Copyright ORBIFLY December 2007 - Disclaimer

ORBIFLY MET'MAP TEAM :

Programming & Development : Alexandra Zaïnal
Concept & Development : Baudouin d'Aumeries
Co-Development & Prog : Marc-Olivier Méhu
Technical & hardware support : Manuel Goepfert

Contact : metmap@orbifly.com




SOURCES & CREDITS :

   NOAA